createdAt,value
2023-03-22T00:00:26.969Z,97999.59
2023-03-22T00:01:26.951Z,98006.61
2023-03-22T00:02:26.980Z,98002.80
2023-03-22T00:03:26.974Z,98006.54
2023-03-22T00:04:26.946Z,98001.62
2023-03-22T00:05:27.029Z,98015.87
2023-03-22T00:06:27.119Z,98008.65
2023-03-22T00:07:27.079Z,98013.55
2023-03-22T00:08:27.185Z,98006.16
2023-03-22T00:09:27.238Z,98016.42
2023-03-22T00:10:27.319Z,98016.64
2023-03-22T00:11:27.415Z,98017.55
2023-03-22T00:12:27.386Z,98011.42
2023-03-22T00:13:27.446Z,98015.94
2023-03-22T00:14:27.518Z,98015.71
2023-03-22T00:15:27.590Z,98017.62
2023-03-22T00:16:27.737Z,98024.53
2023-03-22T00:17:27.738Z,98018.84
2023-03-22T00:18:27.707Z,98014.37
2023-03-22T00:19:27.805Z,98017.54
2023-03-22T00:20:27.778Z,98022.30
2023-03-22T00:21:27.860Z,98024.15
2023-03-22T00:22:27.957Z,98021.27
2023-03-22T00:23:27.953Z,98019.41
2023-03-22T00:24:28.027Z,98015.91
2023-03-22T00:25:28.126Z,98016.88
2023-03-22T00:26:28.197Z,98013.84
2023-03-22T00:27:28.278Z,98013.61
2023-03-22T00:28:28.372Z,98011.94
2023-03-22T00:29:28.451Z,98007.78
2023-03-22T00:30:28.540Z,98008.54
2023-03-22T00:31:28.659Z,98007.55
2023-03-22T00:32:28.670Z,98012.80
2023-03-22T00:33:28.638Z,98008.91
2023-03-22T00:34:28.700Z,98008.02
2023-03-22T00:35:28.815Z,98002.81
2023-03-22T00:36:28.805Z,98010.84
2023-03-22T00:37:28.929Z,98007.64
2023-03-22T00:38:41.392Z,97996.34
2023-03-22T00:39:28.988Z,97994.66
2023-03-22T00:40:28.963Z,97995.81
2023-03-22T00:41:29.049Z,97994.88
2023-03-22T00:42:29.159Z,97992.27
2023-03-22T00:43:29.120Z,97992.06
2023-03-22T00:44:29.216Z,97991.48
2023-03-22T00:45:29.295Z,97991.58
2023-03-22T00:46:29.429Z,97997.84
2023-03-22T00:47:29.404Z,97988.77
2023-03-22T00:48:29.400Z,97995.15
2023-03-22T00:49:29.409Z,98000.83
2023-03-22T00:50:29.514Z,98000.38
2023-03-22T00:51:29.593Z,97996.05
2023-03-22T00:52:29.671Z,97995.77
2023-03-22T00:53:29.763Z,97995.02
2023-03-22T00:54:29.842Z,97993.84
2023-03-22T00:55:29.929Z,97990.83
2023-03-22T00:56:30.020Z,97991.60
2023-03-22T00:57:29.988Z,97990.64
2023-03-22T00:58:30.091Z,97990.73
2023-03-22T00:59:30.060Z,97986.62
2023-03-22T01:00:30.150Z,97982.97
2023-03-22T01:01:30.196Z,97989.20
2023-03-22T01:02:30.433Z,97985.88
2023-03-22T01:03:30.488Z,97988.16
2023-03-22T01:04:30.520Z,97987.58
2023-03-22T01:05:30.586Z,97988.50
2023-03-22T01:06:30.449Z,97987.50
2023-03-22T01:07:30.520Z,97994.23
2023-03-22T01:08:30.639Z,97997.38
2023-03-22T01:09:30.607Z,97991.10
2023-03-22T01:10:30.683Z,97994.38
2023-03-22T01:11:30.764Z,97994.03
2023-03-22T01:12:30.817Z,97992.17
2023-03-22T01:13:30.897Z,97989.59
2023-03-22T01:14:30.978Z,97983.14
2023-03-22T01:15:31.093Z,97990.77
2023-03-22T01:16:31.116Z,97989.58
2023-03-22T01:17:31.085Z,97987.20
2023-03-22T01:18:31.167Z,97984.91
2023-03-22T01:19:31.247Z,97981.42
2023-03-22T01:20:31.327Z,97984.66
2023-03-22T01:21:31.426Z,97990.25
2023-03-22T01:22:31.469Z,97988.67
2023-03-22T01:23:31.494Z,97987.66
2023-03-22T01:24:31.466Z,97983.28
2023-03-22T01:25:31.573Z,97976.11
2023-03-22T01:26:31.651Z,97978.23
2023-03-22T01:27:31.726Z,97972.08
2023-03-22T01:28:31.727Z,97968.14
2023-03-22T01:29:31.819Z,97969.53
2023-03-22T01:30:31.921Z,97973.91
2023-03-22T01:31:31.883Z,97968.82
2023-03-22T01:32:31.979Z,97974.69
2023-03-22T01:33:32.080Z,97976.34
2023-03-22T01:34:32.084Z,97975.90
2023-03-22T01:35:32.078Z,97965.98
2023-03-22T01:36:32.104Z,97965.30
2023-03-22T01:37:32.185Z,97969.39
2023-03-22T01:38:32.196Z,97966.16
2023-03-22T01:39:32.177Z,97968.80
2023-03-22T01:40:32.358Z,97966.34
2023-03-22T01:41:32.258Z,97972.71
2023-03-22T01:42:32.348Z,97965.72
2023-03-22T01:43:32.319Z,97964.70
2023-03-22T01:44:32.434Z,97968.05
2023-03-22T01:45:32.406Z,97964.06
2023-03-22T01:46:32.513Z,97962.62
2023-03-22T01:47:32.531Z,97961.06
2023-03-22T01:48:32.615Z,97959.97
2023-03-22T01:49:32.699Z,97955.10
2023-03-22T01:50:32.777Z,97960.92
2023-03-22T01:51:32.770Z,97949.88
2023-03-22T01:52:32.849Z,97950.48
2023-03-22T01:53:32.909Z,97951.12
2023-03-22T01:54:32.992Z,97958.92
2023-03-22T01:55:33.086Z,97954.44
2023-03-22T01:56:33.084Z,97953.12
2023-03-22T01:57:33.139Z,97957.23
2023-03-22T01:58:33.236Z,97958.47
2023-03-22T01:59:33.201Z,97949.48
2023-03-22T02:00:33.303Z,97948.85
2023-03-22T02:01:33.280Z,97948.77
2023-03-22T02:02:33.305Z,97947.97
2023-03-22T02:03:33.241Z,97950.66
2023-03-22T02:04:33.319Z,97945.59
2023-03-22T02:05:33.309Z,97949.12
2023-03-22T02:06:33.399Z,97942.19
2023-03-22T02:07:33.386Z,97945.58
2023-03-22T02:08:33.467Z,97946.06
2023-03-22T02:09:33.538Z,97943.08
2023-03-22T02:10:33.647Z,97944.14
2023-03-22T02:11:33.614Z,97951.27
2023-03-22T02:12:33.743Z,97949.54
2023-03-22T02:13:33.717Z,97942.05
2023-03-22T02:14:33.791Z,97941.38
2023-03-22T02:15:33.980Z,97947.56
2023-03-22T02:16:33.970Z,97947.02
2023-03-22T02:17:34.039Z,97939.98
2023-03-22T02:18:34.144Z,97940.58
2023-03-22T02:19:34.110Z,97936.59
2023-03-22T02:20:34.225Z,97940.53
2023-03-22T02:21:34.179Z,97937.53
2023-03-22T02:22:34.270Z,97933.00
2023-03-22T02:23:34.350Z,97935.55
2023-03-22T02:24:34.438Z,97933.69
2023-03-22T02:25:34.713Z,97938.78
2023-03-22T02:26:34.604Z,97935.45
2023-03-22T02:27:34.657Z,97928.84
2023-03-22T02:28:34.733Z,97933.08
2023-03-22T02:29:34.821Z,97932.88
2023-03-22T02:30:34.930Z,97931.81
2023-03-22T02:31:34.948Z,97932.49
2023-03-22T02:32:34.908Z,97927.62
2023-03-22T02:33:34.999Z,97931.73
2023-03-22T02:34:35.077Z,97934.66
2023-03-22T02:35:35.187Z,97930.25
2023-03-22T02:36:35.170Z,97926.70
2023-03-22T02:37:35.194Z,97923.61
2023-03-22T02:38:35.187Z,97926.99
2023-03-22T02:39:35.176Z,97929.11
2023-03-22T02:40:35.306Z,97925.26
2023-03-22T02:41:35.285Z,97920.09
2023-03-22T02:42:35.308Z,97926.28
2023-03-22T02:43:35.368Z,97917.48
2023-03-22T02:44:35.458Z,97916.80
2023-03-22T02:45:35.506Z,97921.59
2023-03-22T02:46:35.568Z,97923.75
2023-03-22T02:47:35.567Z,97916.81
2023-03-22T02:48:35.543Z,97924.59
2023-03-22T02:49:35.539Z,97916.81
2023-03-22T02:50:35.638Z,97910.96
2023-03-22T02:51:35.621Z,97914.09
2023-03-22T02:52:35.600Z,97916.73
2023-03-22T02:53:35.664Z,97922.40
2023-03-22T02:54:35.752Z,97925.62
2023-03-22T02:55:35.842Z,97924.13
2023-03-22T02:56:35.846Z,97924.80
2023-03-22T02:57:35.809Z,97918.58
2023-03-22T02:58:35.904Z,97922.17
2023-03-22T02:59:35.865Z,97922.52
2023-03-22T03:00:35.942Z,97919.73
2023-03-22T03:01:36.041Z,97922.90
2023-03-22T03:02:36.008Z,97923.66
2023-03-22T03:03:36.085Z,97917.61
2023-03-22T03:04:36.186Z,97925.31
2023-03-22T03:05:36.155Z,97921.67
2023-03-22T03:06:36.261Z,97920.14
2023-03-22T03:07:36.257Z,97921.50
2023-03-22T03:08:36.227Z,97923.19
2023-03-22T03:09:36.297Z,97924.12
2023-03-22T03:10:36.376Z,97916.08
2023-03-22T03:11:36.469Z,97919.89
2023-03-22T03:12:36.476Z,97916.25
2023-03-22T03:13:36.557Z,97920.44
2023-03-22T03:14:36.635Z,97919.98
2023-03-22T03:15:36.724Z,97932.08
2023-03-22T03:16:36.954Z,97917.14
2023-03-22T03:17:36.860Z,97918.75
2023-03-22T03:18:36.945Z,97918.83
2023-03-22T03:19:37.006Z,97920.40
2023-03-22T03:20:37.250Z,97918.78
2023-03-22T03:21:37.193Z,97920.11
2023-03-22T03:22:37.167Z,97923.48
2023-03-22T03:23:37.248Z,97923.99
2023-03-22T03:24:37.326Z,97923.48
2023-03-22T03:25:37.424Z,97923.09
2023-03-22T03:26:37.502Z,97925.98
2023-03-22T03:27:37.515Z,97920.61
2023-03-22T03:28:37.495Z,97927.58
2023-03-22T03:29:37.488Z,97916.62
2023-03-22T03:30:37.737Z,97922.16
2023-03-22T03:31:37.683Z,97919.62
2023-03-22T03:32:37.594Z,97928.08
2023-03-22T03:33:37.565Z,97923.20
2023-03-22T03:34:37.653Z,97928.33
2023-03-22T03:35:37.809Z,97929.93
2023-03-22T03:36:37.823Z,97931.88
2023-03-22T03:37:37.786Z,97925.95
2023-03-22T03:38:37.867Z,97930.61
2023-03-22T03:39:37.866Z,97928.92
2023-03-22T03:40:38.186Z,97927.27
2023-03-22T03:41:38.025Z,97925.02
2023-03-22T03:42:38.001Z,97924.29
2023-03-22T03:43:38.067Z,97927.25
2023-03-22T03:44:38.137Z,97932.70
2023-03-22T03:45:38.238Z,97933.29
2023-03-22T03:46:38.259Z,97924.11
2023-03-22T03:47:38.235Z,97937.94
2023-03-22T03:48:38.344Z,97931.04
2023-03-22T03:49:38.325Z,97935.26
2023-03-22T03:50:38.676Z,97943.20
2023-03-22T03:51:38.467Z,97941.09
2023-03-22T03:52:38.599Z,97938.47
2023-03-22T03:53:38.577Z,97934.56
2023-03-22T03:54:38.666Z,97943.07
2023-03-22T03:55:38.633Z,97939.80
2023-03-22T03:56:38.728Z,97937.69
2023-03-22T03:57:38.705Z,97940.55
2023-03-22T03:58:38.745Z,97937.89
2023-03-22T03:59:38.805Z,97939.92
2023-03-22T04:00:39.196Z,97938.31
2023-03-22T04:01:38.946Z,97938.48
2023-03-22T04:02:39.093Z,97943.61
2023-03-22T04:03:39.089Z,97938.66
2023-03-22T04:04:39.161Z,97938.58
2023-03-22T04:05:39.152Z,97941.70
2023-03-22T04:06:39.238Z,97942.09
2023-03-22T04:07:39.364Z,97948.81
2023-03-22T04:08:39.348Z,97940.81
2023-03-22T04:09:39.447Z,97942.05
2023-03-22T04:10:39.739Z,97952.27
2023-03-22T04:11:39.430Z,97951.72
2023-03-22T04:12:39.541Z,97946.09
2023-03-22T04:13:39.509Z,97941.56
2023-03-22T04:14:40.626Z,97950.75
2023-03-22T04:15:39.675Z,97938.14
2023-03-22T04:16:39.811Z,97937.92
2023-03-22T04:17:39.810Z,97937.11
2023-03-22T04:18:39.778Z,97942.12
2023-03-22T04:19:39.859Z,97946.94
2023-03-22T04:20:40.308Z,97939.27
2023-03-22T04:21:40.027Z,97944.03
2023-03-22T04:22:40.045Z,97945.96
2023-03-22T04:23:40.022Z,97942.53
2023-03-22T04:24:40.170Z,97943.00
2023-03-22T04:25:40.150Z,97941.35
2023-03-22T04:26:40.230Z,97939.86
2023-03-22T04:27:40.304Z,97947.81
2023-03-22T04:28:40.288Z,97944.63
2023-03-22T04:29:40.273Z,97939.98
2023-03-22T04:30:40.659Z,97940.39
2023-03-22T04:31:40.397Z,97939.80
2023-03-22T04:32:41.506Z,97947.48
2023-03-22T04:33:40.551Z,97941.31
2023-03-22T04:34:40.635Z,97948.19
2023-03-22T04:35:40.718Z,97942.05
2023-03-22T04:36:40.790Z,97944.12
2023-03-22T04:37:40.876Z,97936.00
2023-03-22T04:38:40.974Z,97937.82
2023-03-22T04:39:40.932Z,97940.94
2023-03-22T04:40:41.425Z,97939.38
2023-03-22T04:41:41.020Z,97933.06
2023-03-22T04:42:42.104Z,97933.91
2023-03-22T04:43:41.148Z,97934.16
2023-03-22T04:44:41.233Z,97935.67
2023-03-22T04:45:41.305Z,97941.84
2023-03-22T04:46:41.463Z,97933.56
2023-03-22T04:47:41.524Z,97935.22
2023-03-22T04:48:41.542Z,97934.92
2023-03-22T04:49:41.504Z,97941.04
2023-03-22T04:50:41.899Z,97937.52
2023-03-22T04:51:41.674Z,97940.52
2023-03-22T04:52:41.755Z,97939.36
2023-03-22T04:53:41.825Z,97946.48
2023-03-22T04:54:41.848Z,97945.67
2023-03-22T04:55:41.818Z,97947.45
2023-03-22T04:56:41.902Z,97942.41
2023-03-22T04:57:41.861Z,97940.54
2023-03-22T04:58:41.988Z,97941.67
2023-03-22T04:59:41.953Z,97945.59
2023-03-22T05:00:42.360Z,97945.39
2023-03-22T05:01:42.092Z,97945.05
2023-03-22T05:02:42.168Z,97945.60
2023-03-22T05:03:42.154Z,97940.52
2023-03-22T05:04:42.242Z,97945.99
2023-03-22T05:05:42.313Z,97943.61
2023-03-22T05:06:42.448Z,97941.41
2023-03-22T05:07:42.434Z,97949.39
2023-03-22T05:08:42.545Z,97942.34
2023-03-22T05:09:42.536Z,97944.33
2023-03-22T05:10:42.613Z,97937.87
2023-03-22T05:11:42.694Z,97945.98
2023-03-22T05:12:42.703Z,97940.83
2023-03-22T05:13:42.780Z,97938.30
2023-03-22T05:14:42.904Z,97938.12
2023-03-22T05:15:42.959Z,97937.30
2023-03-22T05:16:42.908Z,97932.75
2023-03-22T05:17:42.884Z,97936.89
2023-03-22T05:18:42.934Z,97934.80
2023-03-22T05:19:42.942Z,97937.03
2023-03-22T05:20:43.015Z,97931.14
2023-03-22T05:21:43.022Z,97931.92
2023-03-22T05:22:43.025Z,97927.88
2023-03-22T05:23:43.003Z,97927.72
2023-03-22T05:24:43.117Z,97932.20
2023-03-22T05:25:43.141Z,97927.44
2023-03-22T05:26:43.171Z,97930.20
2023-03-22T05:27:43.241Z,97924.33
2023-03-22T05:28:43.268Z,97924.72
2023-03-22T05:29:43.329Z,97916.65
2023-03-22T05:30:43.393Z,97914.78
2023-03-22T05:31:43.456Z,97922.27
2023-03-22T05:32:43.471Z,97926.20
2023-03-22T05:33:43.522Z,97921.62
2023-03-22T05:34:43.547Z,97923.81
2023-03-22T05:35:43.538Z,97919.46
2023-03-22T05:36:43.522Z,97927.34
2023-03-22T05:37:43.522Z,97920.58
2023-03-22T05:38:43.610Z,97917.91
2023-03-22T05:39:43.698Z,97917.83
2023-03-22T05:40:43.701Z,97923.05
2023-03-22T05:41:43.660Z,97925.37
2023-03-22T05:42:43.702Z,97920.82
2023-03-22T05:43:43.768Z,97918.27
2023-03-22T05:44:43.877Z,97913.95
2023-03-22T05:45:43.857Z,97914.05
2023-03-22T05:46:43.887Z,97913.73
2023-03-22T05:47:43.866Z,97913.73
2023-03-22T05:48:43.869Z,97911.23
2023-03-22T05:49:43.832Z,97915.94
2023-03-22T05:50:43.854Z,97914.53
2023-03-22T05:51:43.819Z,97911.54
2023-03-22T05:52:43.885Z,97905.88
2023-03-22T05:53:43.954Z,97909.47
2023-03-22T05:54:44.042Z,97912.00
2023-03-22T05:55:44.027Z,97905.28
2023-03-22T05:56:44.110Z,97904.41
2023-03-22T05:57:44.192Z,97908.26
2023-03-22T05:58:44.266Z,97914.26
2023-03-22T05:59:44.246Z,97906.28
2023-03-22T06:00:44.345Z,97902.73
2023-03-22T06:01:44.411Z,97904.94
2023-03-22T06:02:44.440Z,97903.05
2023-03-22T06:03:44.422Z,97901.41
2023-03-22T06:04:44.500Z,97889.25
2023-03-22T06:05:44.587Z,97895.22
2023-03-22T06:06:44.566Z,97897.08
2023-03-22T06:07:44.679Z,97889.61
2023-03-22T06:08:44.640Z,97885.30
2023-03-22T06:09:44.708Z,97888.56
2023-03-22T06:10:44.808Z,97887.17
2023-03-22T06:11:44.816Z,97882.61
2023-03-22T06:12:44.812Z,97887.73
2023-03-22T06:13:44.775Z,97888.16
2023-03-22T06:14:44.857Z,97887.52
2023-03-22T06:15:44.967Z,97888.20
2023-03-22T06:16:44.978Z,97883.91
2023-03-22T06:17:44.976Z,97889.91
2023-03-22T06:18:44.933Z,97884.72
2023-03-22T06:19:45.015Z,97884.27
2023-03-22T06:20:45.117Z,97883.94
2023-03-22T06:21:45.080Z,97892.06
2023-03-22T06:22:45.152Z,97888.22
2023-03-22T06:23:45.210Z,97891.22
2023-03-22T06:24:45.318Z,97892.99
2023-03-22T06:25:45.407Z,97887.97
2023-03-22T06:26:45.476Z,97889.33
2023-03-22T06:27:45.427Z,97893.39
2023-03-22T06:28:45.527Z,97894.59
2023-03-22T06:29:45.613Z,97890.36
2023-03-22T06:30:45.762Z,97892.36
2023-03-22T06:31:45.731Z,97890.92
2023-03-22T06:32:45.751Z,97898.16
2023-03-22T06:33:45.773Z,97892.58
2023-03-22T06:34:45.881Z,97892.84
2023-03-22T06:35:46.030Z,97894.20
2023-03-22T06:36:45.926Z,97893.03
2023-03-22T06:37:45.949Z,97889.70
2023-03-22T06:38:46.031Z,97896.31
2023-03-22T06:39:46.020Z,97890.95
2023-03-22T06:40:46.132Z,97893.48
2023-03-22T06:41:46.101Z,97896.67
2023-03-22T06:42:46.100Z,97896.47
2023-03-22T06:43:46.084Z,97892.00
2023-03-22T06:44:46.183Z,97901.14
2023-03-22T06:45:46.168Z,97905.21
2023-03-22T06:46:46.165Z,97899.77
2023-03-22T06:47:46.182Z,97902.36
2023-03-22T06:48:46.182Z,97910.33
2023-03-22T06:49:46.171Z,97900.73
2023-03-22T06:50:46.615Z,97893.22
2023-03-22T06:51:46.179Z,97900.78
2023-03-22T06:52:46.205Z,97901.98
2023-03-22T06:53:46.176Z,97905.30
2023-03-22T06:54:46.169Z,97906.12
2023-03-22T06:55:46.178Z,97906.76
2023-03-22T06:56:46.220Z,97908.12
2023-03-22T06:57:46.251Z,97915.66
2023-03-22T06:58:46.317Z,97908.17
2023-03-22T06:59:46.351Z,97907.70
2023-03-22T07:00:46.356Z,97908.77
2023-03-22T07:01:46.447Z,97911.09
2023-03-22T07:02:46.401Z,97912.28
2023-03-22T07:03:46.444Z,97910.50
2023-03-22T07:04:46.667Z,97915.70
2023-03-22T07:05:46.604Z,97918.16
2023-03-22T07:06:46.689Z,97914.86
2023-03-22T07:07:46.655Z,97913.16
2023-03-22T07:08:46.647Z,97914.43
2023-03-22T07:09:46.760Z,97918.23
2023-03-22T07:10:46.716Z,97910.39
2023-03-22T07:11:46.802Z,97917.33
2023-03-22T07:12:46.820Z,97918.85
2023-03-22T07:13:46.847Z,97912.36
2023-03-22T07:14:46.920Z,97916.89
2023-03-22T07:15:46.949Z,97922.09
2023-03-22T07:16:47.034Z,97919.59
2023-03-22T07:17:47.088Z,97915.47
2023-03-22T07:18:47.115Z,97921.69
2023-03-22T07:19:47.165Z,97918.88
2023-03-22T07:20:47.205Z,97920.23
2023-03-22T07:21:47.255Z,97915.34
2023-03-22T07:22:47.258Z,97910.92
2023-03-22T07:23:47.306Z,97912.95
2023-03-22T07:24:56.517Z,97913.78
2023-03-22T07:25:47.396Z,97911.30
2023-03-22T07:26:47.446Z,97909.80
2023-03-22T07:27:47.489Z,97916.14
2023-03-22T07:28:47.474Z,97913.41
2023-03-22T07:29:47.635Z,97911.06
2023-03-22T07:30:47.523Z,97907.95
2023-03-22T07:31:47.683Z,97914.67
2023-03-22T07:32:47.715Z,97909.38
2023-03-22T07:33:47.795Z,97914.67
2023-03-22T07:34:48.837Z,97906.37
2023-03-22T07:35:47.920Z,97915.33
2023-03-22T07:36:47.916Z,97904.20
2023-03-22T07:37:47.906Z,97899.42
2023-03-22T07:38:47.999Z,97904.78
2023-03-22T07:39:48.055Z,97903.08
2023-03-22T07:40:48.090Z,97899.92
2023-03-22T07:41:48.108Z,97906.00
2023-03-22T07:42:48.165Z,97904.64
2023-03-22T07:43:55.409Z,97905.33
2023-03-22T07:44:48.302Z,97907.20
2023-03-22T07:45:48.358Z,97912.50
2023-03-22T07:46:48.489Z,97905.53
2023-03-22T07:47:48.536Z,97904.73
2023-03-22T07:48:48.533Z,97902.50
2023-03-22T07:49:48.640Z,97902.13
2023-03-22T07:50:48.711Z,97900.45
2023-03-22T07:51:48.828Z,97904.26
2023-03-22T07:52:48.833Z,97903.02
2023-03-22T07:53:48.893Z,97906.10
2023-03-22T07:54:48.912Z,97898.61
2023-03-22T07:55:49.003Z,97900.24
2023-03-22T07:56:49.093Z,97895.86
2023-03-22T07:57:49.108Z,97898.72
2023-03-22T07:58:49.132Z,97896.77
2023-03-22T07:59:49.202Z,97894.16
2023-03-22T08:00:49.235Z,97897.92
2023-03-22T08:01:49.492Z,97894.55
2023-03-22T08:02:49.401Z,97896.47
2023-03-22T08:03:49.345Z,97904.42
2023-03-22T08:04:51.903Z,97902.68
2023-03-22T08:05:49.489Z,97901.50
2023-03-22T08:06:49.616Z,97904.86
2023-03-22T08:07:49.618Z,97902.98
2023-03-22T08:08:49.665Z,97895.98
2023-03-22T08:09:49.737Z,97900.05
2023-03-22T08:10:49.738Z,97900.78
2023-03-22T08:11:49.804Z,97902.06
2023-03-22T08:12:49.843Z,97898.72
2023-03-22T08:13:49.906Z,97896.71
2023-03-22T08:14:49.962Z,97901.72
2023-03-22T08:15:50.030Z,97900.92
2023-03-22T08:16:50.093Z,97902.61
2023-03-22T08:17:50.156Z,97895.45
2023-03-22T08:18:50.235Z,97898.02
2023-03-22T08:19:50.271Z,97911.02
2023-03-22T08:20:50.302Z,97901.15
2023-03-22T08:21:50.431Z,97898.36
2023-03-22T08:22:50.577Z,97900.25
2023-03-22T08:23:50.546Z,97899.88
2023-03-22T08:24:50.564Z,97901.79
2023-03-22T08:25:50.601Z,97902.23
2023-03-22T08:26:50.674Z,97905.25
2023-03-22T08:27:50.690Z,97904.94
2023-03-22T08:28:50.766Z,97906.03
2023-03-22T08:29:50.766Z,97897.19
2023-03-22T08:30:50.793Z,97898.19
2023-03-22T08:31:50.895Z,97901.00
2023-03-22T08:32:50.923Z,97897.87
2023-03-22T08:33:50.962Z,97898.12
2023-03-22T08:34:51.011Z,97899.19
2023-03-22T08:35:51.117Z,97898.97
2023-03-22T08:36:51.061Z,97897.09
2023-03-22T08:37:51.519Z,97896.46
2023-03-22T08:38:51.144Z,97890.73
2023-03-22T08:39:51.170Z,97894.14
2023-03-22T08:40:51.214Z,97891.64
2023-03-22T08:41:51.252Z,97889.84
2023-03-22T08:42:51.308Z,97895.77
2023-03-22T08:43:51.372Z,97889.73
2023-03-22T08:44:51.411Z,97892.67
2023-03-22T08:45:51.454Z,97896.69
2023-03-22T08:46:51.525Z,97904.12
2023-03-22T08:47:51.582Z,97899.25
2023-03-22T08:48:51.630Z,97896.77
2023-03-22T08:49:51.683Z,97897.17
2023-03-22T08:50:51.722Z,97903.02
2023-03-22T08:51:51.800Z,97903.27
2023-03-22T08:52:51.840Z,97902.36
2023-03-22T08:53:51.902Z,97910.74
2023-03-22T08:54:51.947Z,97900.59
2023-03-22T08:55:51.965Z,97894.19
2023-03-22T08:56:52.024Z,97895.22
2023-03-22T08:57:52.062Z,97894.55
2023-03-22T08:58:52.142Z,97890.04
2023-03-22T08:59:52.226Z,97888.25
2023-03-22T09:00:52.494Z,97886.48
2023-03-22T09:01:52.477Z,97886.99
2023-03-22T09:02:52.351Z,97888.53
2023-03-22T09:03:52.407Z,97899.33
2023-03-22T09:04:52.531Z,97889.91
2023-03-22T09:05:52.510Z,97880.96
2023-03-22T09:06:52.548Z,97890.05
2023-03-22T09:07:52.635Z,97885.87
2023-03-22T09:08:52.703Z,97886.31
2023-03-22T09:09:52.730Z,97880.31
2023-03-22T09:10:52.781Z,97871.62
2023-03-22T09:11:52.827Z,97863.84
2023-03-22T09:12:52.875Z,97869.90
2023-03-22T09:13:52.956Z,97870.95
2023-03-22T09:14:53.858Z,97878.99
2023-03-22T09:15:53.074Z,97872.33
2023-03-22T09:16:53.025Z,97878.48
2023-03-22T09:17:53.060Z,97875.11
2023-03-22T09:18:53.125Z,97872.23
2023-03-22T09:20:05.877Z,97878.40
2023-03-22T09:20:53.139Z,97885.48
2023-03-22T09:21:53.178Z,97863.00
2023-03-22T09:22:53.199Z,97871.59
2023-03-22T09:23:53.250Z,97867.88
2023-03-22T09:24:53.308Z,97862.78
2023-03-22T09:25:53.376Z,97861.09
2023-03-22T09:26:53.401Z,97862.52
2023-03-22T09:27:53.456Z,97861.47
2023-03-22T09:28:53.478Z,97866.92
2023-03-22T09:29:53.510Z,97871.86
2023-03-22T09:30:53.560Z,97868.80
2023-03-22T09:31:53.597Z,97888.36
2023-03-22T09:32:53.622Z,97865.29
2023-03-22T09:33:53.661Z,97870.98
2023-03-22T09:34:53.707Z,97861.36
2023-03-22T09:35:53.795Z,97860.98
2023-03-22T09:36:54.313Z,97874.06
2023-03-22T09:37:53.900Z,97858.21
2023-03-22T09:38:53.948Z,97853.70
2023-03-22T09:39:54.010Z,97851.05
2023-03-22T09:40:54.029Z,97845.68
2023-03-22T09:41:54.078Z,97861.09
2023-03-22T09:42:54.107Z,97848.92
2023-03-22T09:43:54.149Z,97842.95
2023-03-22T09:44:54.188Z,97844.59
2023-03-22T09:45:54.314Z,97845.30
2023-03-22T09:46:54.223Z,97838.09
2023-03-22T09:47:54.306Z,97839.31
2023-03-22T09:48:54.329Z,97844.29
2023-03-22T09:49:54.380Z,97844.66
2023-03-22T09:50:54.464Z,97842.66
2023-03-22T09:51:55.560Z,97844.48
2023-03-22T09:52:54.476Z,97833.75
2023-03-22T09:53:54.520Z,97837.55
2023-03-22T09:54:54.539Z,97837.10
2023-03-22T09:55:54.590Z,97840.04
2023-03-22T09:56:54.639Z,97834.17
2023-03-22T09:57:54.661Z,97838.98
2023-03-22T09:58:54.677Z,97827.55
2023-03-22T09:59:54.701Z,97827.69
2023-03-22T10:00:54.868Z,97826.58
2023-03-22T10:01:56.145Z,97829.86
2023-03-22T10:02:54.849Z,97827.36
2023-03-22T10:03:54.953Z,97830.85
2023-03-22T10:04:54.922Z,97824.91
2023-03-22T10:05:54.960Z,97827.81
2023-03-22T10:06:54.976Z,97824.44
2023-03-22T10:07:55.013Z,97818.09
2023-03-22T10:08:55.039Z,97827.22
2023-03-22T10:09:55.080Z,97818.97
2023-03-22T10:10:55.142Z,97823.66
2023-03-22T10:11:55.170Z,97817.78
2023-03-22T10:12:55.194Z,97814.70
2023-03-22T10:13:56.234Z,97813.66
2023-03-22T10:14:55.222Z,97812.45
2023-03-22T10:15:55.338Z,97818.62
2023-03-22T10:16:56.506Z,97818.88
2023-03-22T10:17:55.360Z,97812.06
2023-03-22T10:18:55.394Z,97816.72
2023-03-22T10:19:55.446Z,97822.73
2023-03-22T10:20:55.498Z,97808.98
2023-03-22T10:21:55.551Z,97807.80
2023-03-22T10:22:55.572Z,97806.15
2023-03-22T10:23:55.603Z,97806.06
2023-03-22T10:24:55.656Z,97805.12
2023-03-22T10:25:55.736Z,97818.41
2023-03-22T10:26:55.793Z,97815.03
2023-03-22T10:27:57.849Z,97804.62
2023-03-22T10:28:55.872Z,97794.59
2023-03-22T10:29:55.914Z,97796.22
2023-03-22T10:30:55.976Z,97800.55
2023-03-22T10:31:56.058Z,97799.43
2023-03-22T10:32:58.076Z,97791.34
2023-03-22T10:33:56.192Z,97793.50
2023-03-22T10:34:56.234Z,97785.36
2023-03-22T10:35:56.309Z,97786.52
2023-03-22T10:36:56.323Z,97782.80
2023-03-22T10:37:56.355Z,97781.08
2023-03-22T10:38:56.407Z,97781.45
2023-03-22T10:39:56.432Z,97779.18
2023-03-22T10:40:56.495Z,97786.52
2023-03-22T10:41:58.052Z,97780.91
2023-03-22T10:42:56.546Z,97766.89
2023-03-22T10:43:56.612Z,97779.27
2023-03-22T10:44:56.634Z,97773.30
2023-03-22T10:45:56.677Z,97770.33
2023-03-22T10:46:56.748Z,97753.47
2023-03-22T10:47:57.728Z,97767.81
2023-03-22T10:48:56.696Z,97760.33
2023-03-22T10:49:56.766Z,97767.65
2023-03-22T10:50:56.788Z,97771.22
2023-03-22T10:51:56.732Z,97770.20
2023-03-22T10:52:56.773Z,97765.75
2023-03-22T10:53:56.777Z,97758.64
2023-03-22T10:55:00.249Z,97776.84
2023-03-22T10:55:56.900Z,97761.24
2023-03-22T10:56:56.941Z,97758.91
2023-03-22T10:57:56.955Z,97760.66
2023-03-22T10:58:56.987Z,97767.95
2023-03-22T10:59:57.002Z,97772.94
2023-03-22T11:00:57.232Z,97755.28
2023-03-22T11:01:57.290Z,97766.66
2023-03-22T11:02:57.119Z,97763.74
2023-03-22T11:03:57.081Z,97753.16
2023-03-22T11:04:57.115Z,97765.03
2023-03-22T11:05:57.132Z,97767.52
2023-03-22T11:06:57.161Z,97751.70
2023-03-22T11:07:57.171Z,97752.47
2023-03-22T11:08:57.334Z,97759.82
2023-03-22T11:09:57.252Z,97753.76
2023-03-22T11:10:57.310Z,97758.03
2023-03-22T11:11:57.352Z,97768.44
2023-03-22T11:12:57.393Z,97766.33
2023-03-22T11:13:57.375Z,97763.66
2023-03-22T11:14:57.402Z,97753.47
2023-03-22T11:15:57.431Z,97754.55
2023-03-22T11:16:57.491Z,97746.53
2023-03-22T11:17:57.493Z,97752.48
2023-03-22T11:18:57.527Z,97750.48
2023-03-22T11:19:57.566Z,97755.44
2023-03-22T11:20:57.581Z,97745.12
2023-03-22T11:21:57.627Z,97741.24
2023-03-22T11:22:57.641Z,97752.11
2023-03-22T11:23:57.656Z,97755.22
2023-03-22T11:24:57.670Z,97757.03
2023-03-22T11:25:57.696Z,97746.63
2023-03-22T11:26:57.737Z,97745.42
2023-03-22T11:27:57.744Z,97744.23
2023-03-22T11:28:57.773Z,97740.84
2023-03-22T11:29:57.793Z,97739.89
2023-03-22T11:30:57.812Z,97736.38
2023-03-22T11:31:57.966Z,97745.90
2023-03-22T11:32:57.984Z,97746.20
2023-03-22T11:33:58.003Z,97733.95
2023-03-22T11:34:58.025Z,97729.02
2023-03-22T11:35:58.070Z,97725.89
2023-03-22T11:36:58.176Z,97719.94
2023-03-22T11:37:58.189Z,97724.80
2023-03-22T11:38:58.187Z,97718.70
2023-03-22T11:39:58.205Z,97732.29
2023-03-22T11:40:58.226Z,97717.84
2023-03-22T11:41:58.247Z,97740.31
2023-03-22T11:42:58.530Z,97739.10
2023-03-22T11:43:58.355Z,97739.11
2023-03-22T11:44:58.370Z,97732.30